sensor_id;sensor_type;location;lat;lon;timestamp;P1;durP1;ratioP1;P2;durP2;ratioP2
64932;SDS011;51446;53.850;10.662;2022-10-16T00:02:19;5.97;;;3.80;;
64932;SDS011;51446;53.850;10.662;2022-10-16T00:04:45;7.03;;;3.73;;
64932;SDS011;51446;53.850;10.662;2022-10-16T00:07:10;5.33;;;3.70;;
64932;SDS011;51446;53.850;10.662;2022-10-16T00:09:35;4.87;;;3.70;;
64932;SDS011;51446;53.850;10.662;2022-10-16T00:12:01;5.90;;;3.60;;
64932;SDS011;51446;53.850;10.662;2022-10-16T00:14:26;7.20;;;4.30;;
64932;SDS011;51446;53.850;10.662;2022-10-16T00:16:51;4.77;;;3.80;;
64932;SDS011;51446;53.850;10.662;2022-10-16T00:19:16;5.93;;;3.87;;
64932;SDS011;51446;53.850;10.662;2022-10-16T00:21:42;6.20;;;4.10;;
64932;SDS011;51446;53.850;10.662;2022-10-16T00:24:08;4.90;;;3.53;;
64932;SDS011;51446;53.850;10.662;2022-10-16T00:26:34;4.27;;;3.40;;
64932;SDS011;51446;53.850;10.662;2022-10-16T00:29:01;5.88;;;3.70;;
64932;SDS011;51446;53.850;10.662;2022-10-16T00:31:27;5.68;;;3.55;;
64932;SDS011;51446;53.850;10.662;2022-10-16T00:33:53;5.18;;;3.70;;
64932;SDS011;51446;53.850;10.662;2022-10-16T00:36:20;5.07;;;4.07;;
64932;SDS011;51446;53.850;10.662;2022-10-16T00:38:46;7.07;;;4.00;;
64932;SDS011;51446;53.850;10.662;2022-10-16T00:41:15;5.85;;;4.03;;
64932;SDS011;51446;53.850;10.662;2022-10-16T00:49:06;6.90;;;3.97;;
64932;SDS011;51446;53.850;10.662;2022-10-16T00:51:38;9.80;;;4.80;;
64932;SDS011;51446;53.850;10.662;2022-10-16T00:54:07;7.35;;;4.20;;
64932;SDS011;51446;53.850;10.662;2022-10-16T00:56:38;5.35;;;4.45;;
64932;SDS011;51446;53.850;10.662;2022-10-16T00:59:06;9.23;;;4.90;;
64932;SDS011;51446;53.850;10.662;2022-10-16T01:01:40;8.32;;;4.40;;
64932;SDS011;51446;53.850;10.662;2022-10-16T01:04:05;6.53;;;5.07;;
64932;SDS011;51446;53.850;10.662;2022-10-16T01:16:56;11.93;;;5.60;;
64932;SDS011;51446;53.850;10.662;2022-10-16T01:19:29;8.90;;;6.20;;
64932;SDS011;51446;53.850;10.662;2022-10-16T01:22:16;7.03;;;5.38;;
64932;SDS011;51446;53.850;10.662;2022-10-16T01:24:46;6.70;;;5.50;;
64932;SDS011;51446;53.850;10.662;2022-10-16T01:27:21;7.28;;;5.80;;
64932;SDS011;51446;53.850;10.662;2022-10-16T01:30:07;10.73;;;5.95;;
64932;SDS011;51446;53.850;10.662;2022-10-16T01:37:53;8.38;;;5.78;;
64932;SDS011;51446;53.850;10.662;2022-10-16T01:40:25;6.63;;;5.35;;
64932;SDS011;51446;53.850;10.662;2022-10-16T01:42:55;10.23;;;5.65;;
64932;SDS011;51446;53.850;10.662;2022-10-16T01:45:25;6.80;;;5.47;;
64932;SDS011;51446;53.850;10.662;2022-10-16T01:47:53;8.95;;;5.03;;
64932;SDS011;51446;53.850;10.662;2022-10-16T01:50:19;9.63;;;5.68;;
64932;SDS011;51446;53.850;10.662;2022-10-16T01:52:46;10.95;;;5.18;;
64932;SDS011;51446;53.850;10.662;2022-10-16T01:55:14;7.17;;;5.43;;
64932;SDS011;51446;53.850;10.662;2022-10-16T01:57:44;7.35;;;4.90;;
64932;SDS011;51446;53.850;10.662;2022-10-16T02:00:14;9.88;;;5.03;;
64932;SDS011;51446;53.850;10.662;2022-10-16T02:02:44;10.25;;;5.10;;
64932;SDS011;51446;53.850;10.662;2022-10-16T02:07:49;6.53;;;4.87;;
64932;SDS011;51446;53.850;10.662;2022-10-16T02:10:14;6.50;;;4.55;;
64932;SDS011;51446;53.850;10.662;2022-10-16T02:12:41;6.50;;;4.80;;
64932;SDS011;51446;53.850;10.662;2022-10-16T02:15:11;4.97;;;4.47;;
64932;SDS011;51446;53.850;10.662;2022-10-16T02:17:36;6.50;;;4.73;;
64932;SDS011;51446;53.850;10.662;2022-10-16T02:20:02;9.00;;;4.70;;
64932;SDS011;51446;53.850;10.662;2022-10-16T02:22:42;7.60;;;4.47;;
64932;SDS011;51446;53.850;10.662;2022-10-16T02:25:19;6.43;;;4.45;;
64932;SDS011;51446;53.850;10.662;2022-10-16T02:27:52;7.75;;;4.00;;
64932;SDS011;51446;53.850;10.662;2022-10-16T02:30:27;6.38;;;4.18;;
64932;SDS011;51446;53.850;10.662;2022-10-16T02:32:57;6.63;;;4.20;;
64932;SDS011;51446;53.850;10.662;2022-10-16T02:35:25;5.90;;;3.85;;
64932;SDS011;51446;53.850;10.662;2022-10-16T02:37:52;8.13;;;4.10;;
64932;SDS011;51446;53.850;10.662;2022-10-16T02:40:19;5.00;;;3.95;;
64932;SDS011;51446;53.850;10.662;2022-10-16T02:42:44;6.13;;;3.93;;
64932;SDS011;51446;53.850;10.662;2022-10-16T02:45:15;7.03;;;3.35;;
64932;SDS011;51446;53.850;10.662;2022-10-16T02:47:40;6.70;;;3.77;;
64932;SDS011;51446;53.850;10.662;2022-10-16T02:50:05;5.10;;;3.70;;
64932;SDS011;51446;53.850;10.662;2022-10-16T02:52:31;9.10;;;3.90;;
64932;SDS011;51446;53.850;10.662;2022-10-16T02:54:56;5.60;;;3.63;;
64932;SDS011;51446;53.850;10.662;2022-10-16T02:57:21;5.13;;;3.50;;
64932;SDS011;51446;53.850;10.662;2022-10-16T02:59:47;6.57;;;3.50;;
64932;SDS011;51446;53.850;10.662;2022-10-16T03:02:12;11.17;;;3.40;;
64932;SDS011;51446;53.850;10.662;2022-10-16T03:04:37;6.73;;;3.60;;
64932;SDS011;51446;53.850;10.662;2022-10-16T03:07:03;6.65;;;3.22;;
64932;SDS011;51446;53.850;10.662;2022-10-16T03:09:28;5.13;;;3.30;;
64932;SDS011;51446;53.850;10.662;2022-10-16T03:11:53;5.80;;;3.70;;
64932;SDS011;51446;53.850;10.662;2022-10-16T03:14:19;6.33;;;3.43;;
64932;SDS011;51446;53.850;10.662;2022-10-16T03:16:44;5.60;;;3.20;;
64932;SDS011;51446;53.850;10.662;2022-10-16T03:19:09;4.87;;;3.10;;
64932;SDS011;51446;53.850;10.662;2022-10-16T03:21:34;3.33;;;2.77;;
64932;SDS011;51446;53.850;10.662;2022-10-16T03:24:00;5.53;;;3.23;;
64932;SDS011;51446;53.850;10.662;2022-10-16T03:26:25;3.85;;;3.10;;
64932;SDS011;51446;53.850;10.662;2022-10-16T03:28:50;4.17;;;2.77;;
64932;SDS011;51446;53.850;10.662;2022-10-16T03:31:16;6.27;;;2.90;;
64932;SDS011;51446;53.850;10.662;2022-10-16T03:33:41;7.40;;;3.37;;
64932;SDS011;51446;53.850;10.662;2022-10-16T03:36:06;5.33;;;2.93;;
64932;SDS011;51446;53.850;10.662;2022-10-16T03:38:32;5.67;;;3.40;;
64932;SDS011;51446;53.850;10.662;2022-10-16T03:40:57;3.80;;;2.93;;
64932;SDS011;51446;53.850;10.662;2022-10-16T03:43:22;3.90;;;2.90;;
64932;SDS011;51446;53.850;10.662;2022-10-16T03:45:49;4.97;;;2.70;;
64932;SDS011;51446;53.850;10.662;2022-10-16T03:48:16;4.20;;;2.83;;
64932;SDS011;51446;53.850;10.662;2022-10-16T03:50:42;3.33;;;2.47;;
64932;SDS011;51446;53.850;10.662;2022-10-16T03:53:07;4.47;;;2.80;;
64932;SDS011;51446;53.850;10.662;2022-10-16T03:55:32;5.80;;;2.87;;
64932;SDS011;51446;53.850;10.662;2022-10-16T03:57:57;5.77;;;2.67;;
64932;SDS011;51446;53.850;10.662;2022-10-16T04:00:23;2.43;;;2.27;;
64932;SDS011;51446;53.850;10.662;2022-10-16T04:02:48;7.53;;;2.67;;
64932;SDS011;51446;53.850;10.662;2022-10-16T04:05:13;4.63;;;2.70;;
64932;SDS011;51446;53.850;10.662;2022-10-16T04:07:38;3.53;;;2.50;;
64932;SDS011;51446;53.850;10.662;2022-10-16T04:10:04;5.60;;;2.60;;
64932;SDS011;51446;53.850;10.662;2022-10-16T04:12:29;5.18;;;2.38;;
64932;SDS011;51446;53.850;10.662;2022-10-16T04:14:55;9.13;;;2.70;;
64932;SDS011;51446;53.850;10.662;2022-10-16T04:17:20;5.00;;;2.38;;
64932;SDS011;51446;53.850;10.662;2022-10-16T04:19:45;4.37;;;2.40;;
64932;SDS011;51446;53.850;10.662;2022-10-16T04:22:10;13.20;;;3.10;;
64932;SDS011;51446;53.850;10.662;2022-10-16T04:24:36;3.63;;;2.80;;
64932;SDS011;51446;53.850;10.662;2022-10-16T04:27:01;7.37;;;2.73;;
64932;SDS011;51446;53.850;10.662;2022-10-16T04:29:26;3.80;;;2.37;;
64932;SDS011;51446;53.850;10.662;2022-10-16T04:31:52;3.43;;;2.40;;
64932;SDS011;51446;53.850;10.662;2022-10-16T04:34:17;4.57;;;2.43;;
64932;SDS011;51446;53.850;10.662;2022-10-16T04:36:43;6.20;;;2.40;;
64932;SDS011;51446;53.850;10.662;2022-10-16T04:39:08;3.57;;;2.30;;
64932;SDS011;51446;53.850;10.662;2022-10-16T04:41:33;5.83;;;2.40;;
64932;SDS011;51446;53.850;10.662;2022-10-16T04:43:59;4.50;;;2.30;;
64932;SDS011;51446;53.850;10.662;2022-10-16T04:46:24;6.50;;;2.27;;
64932;SDS011;51446;53.850;10.662;2022-10-16T04:48:49;6.10;;;2.40;;
64932;SDS011;51446;53.850;10.662;2022-10-16T04:51:14;3.50;;;2.33;;
64932;SDS011;51446;53.850;10.662;2022-10-16T04:53:40;6.13;;;2.20;;
64932;SDS011;51446;53.850;10.662;2022-10-16T04:56:05;3.50;;;2.00;;
64932;SDS011;51446;53.850;10.662;2022-10-16T04:58:30;5.63;;;2.23;;
64932;SDS011;51446;53.850;10.662;2022-10-16T05:00:55;4.80;;;2.30;;
64932;SDS011;51446;53.850;10.662;2022-10-16T05:03:21;4.10;;;2.30;;
64932;SDS011;51446;53.850;10.662;2022-10-16T05:05:46;3.60;;;2.20;;
64932;SDS011;51446;53.850;10.662;2022-10-16T05:08:12;2.70;;;2.20;;
64932;SDS011;51446;53.850;10.662;2022-10-16T05:10:39;2.80;;;2.00;;
64932;SDS011;51446;53.850;10.662;2022-10-16T05:13:06;5.82;;;2.67;;
64932;SDS011;51446;53.850;10.662;2022-10-16T05:15:31;4.73;;;1.90;;
64932;SDS011;51446;53.850;10.662;2022-10-16T05:17:56;3.53;;;1.97;;
64932;SDS011;51446;53.850;10.662;2022-10-16T05:20:22;3.33;;;2.20;;
64932;SDS011;51446;53.850;10.662;2022-10-16T05:22:48;4.40;;;1.90;;
64932;SDS011;51446;53.850;10.662;2022-10-16T05:25:13;3.03;;;2.17;;
64932;SDS011;51446;53.850;10.662;2022-10-16T05:27:38;2.58;;;1.90;;
64932;SDS011;51446;53.850;10.662;2022-10-16T05:30:04;4.23;;;2.17;;
64932;SDS011;51446;53.850;10.662;2022-10-16T05:32:30;4.20;;;2.20;;
64932;SDS011;51446;53.850;10.662;2022-10-16T05:34:55;7.60;;;2.17;;
64932;SDS011;51446;53.850;10.662;2022-10-16T05:37:20;4.30;;;2.30;;
64932;SDS011;51446;53.850;10.662;2022-10-16T05:39:45;3.43;;;2.27;;
64932;SDS011;51446;53.850;10.662;2022-10-16T05:42:10;5.10;;;2.43;;
64932;SDS011;51446;53.850;10.662;2022-10-16T05:44:36;3.97;;;2.40;;
64932;SDS011;51446;53.850;10.662;2022-10-16T05:47:01;3.50;;;2.43;;
64932;SDS011;51446;53.850;10.662;2022-10-16T05:49:26;6.87;;;2.40;;
64932;SDS011;51446;53.850;10.662;2022-10-16T05:51:52;6.18;;;2.40;;
64932;SDS011;51446;53.850;10.662;2022-10-16T05:54:17;7.03;;;2.60;;
64932;SDS011;51446;53.850;10.662;2022-10-16T05:56:42;4.43;;;2.60;;
64932;SDS011;51446;53.850;10.662;2022-10-16T05:59:08;5.67;;;2.60;;
64932;SDS011;51446;53.850;10.662;2022-10-16T06:01:33;5.33;;;2.20;;
64932;SDS011;51446;53.850;10.662;2022-10-16T06:03:58;4.90;;;2.90;;
64932;SDS011;51446;53.850;10.662;2022-10-16T06:06:25;4.80;;;2.13;;
64932;SDS011;51446;53.850;10.662;2022-10-16T06:08:51;7.18;;;3.15;;
64932;SDS011;51446;53.850;10.662;2022-10-16T06:11:19;9.07;;;3.92;;
64932;SDS011;51446;53.850;10.662;2022-10-16T06:13:51;9.77;;;2.85;;
64932;SDS011;51446;53.850;10.662;2022-10-16T06:16:17;4.13;;;2.60;;
64932;SDS011;51446;53.850;10.662;2022-10-16T06:18:42;3.93;;;2.03;;
64932;SDS011;51446;53.850;10.662;2022-10-16T06:21:08;4.63;;;2.13;;
64932;SDS011;51446;53.850;10.662;2022-10-16T06:23:35;5.93;;;2.10;;
64932;SDS011;51446;53.850;10.662;2022-10-16T06:26:04;3.03;;;2.20;;
64932;SDS011;51446;53.850;10.662;2022-10-16T06:28:33;3.10;;;2.20;;
64932;SDS011;51446;53.850;10.662;2022-10-16T06:30:59;3.08;;;1.88;;
64932;SDS011;51446;53.850;10.662;2022-10-16T06:33:25;7.10;;;2.45;;
64932;SDS011;51446;53.850;10.662;2022-10-16T06:35:50;3.70;;;2.07;;
64932;SDS011;51446;53.850;10.662;2022-10-16T06:38:15;5.37;;;1.80;;
64932;SDS011;51446;53.850;10.662;2022-10-16T06:40:41;4.30;;;2.30;;
64932;SDS011;51446;53.850;10.662;2022-10-16T06:43:06;4.23;;;1.70;;
64932;SDS011;51446;53.850;10.662;2022-10-16T06:45:31;5.70;;;1.80;;
64932;SDS011;51446;53.850;10.662;2022-10-16T06:47:56;2.83;;;1.70;;
64932;SDS011;51446;53.850;10.662;2022-10-16T06:50:22;2.97;;;1.60;;
64932;SDS011;51446;53.850;10.662;2022-10-16T06:52:47;4.20;;;1.40;;
64932;SDS011;51446;53.850;10.662;2022-10-16T06:55:12;4.37;;;1.23;;
64932;SDS011;51446;53.850;10.662;2022-10-16T06:57:38;5.10;;;1.43;;
64932;SDS011;51446;53.850;10.662;2022-10-16T07:00:03;3.10;;;1.60;;
64932;SDS011;51446;53.850;10.662;2022-10-16T07:02:29;4.20;;;1.35;;
64932;SDS011;51446;53.850;10.662;2022-10-16T07:04:54;2.77;;;1.50;;
64932;SDS011;51446;53.850;10.662;2022-10-16T07:07:20;5.40;;;1.65;;
64932;SDS011;51446;53.850;10.662;2022-10-16T07:09:45;3.50;;;1.60;;
64932;SDS011;51446;53.850;10.662;2022-10-16T07:12:11;5.57;;;1.27;;
64932;SDS011;51446;53.850;10.662;2022-10-16T07:14:36;2.33;;;1.27;;
64932;SDS011;51446;53.850;10.662;2022-10-16T07:17:01;4.20;;;1.33;;
64932;SDS011;51446;53.850;10.662;2022-10-16T07:19:27;2.33;;;1.10;;
64932;SDS011;51446;53.850;10.662;2022-10-16T07:21:53;3.60;;;1.50;;
64932;SDS011;51446;53.850;10.662;2022-10-16T07:24:18;4.10;;;1.97;;
64932;SDS011;51446;53.850;10.662;2022-10-16T07:26:44;6.50;;;2.00;;
64932;SDS011;51446;53.850;10.662;2022-10-16T07:29:12;3.58;;;1.63;;
64932;SDS011;51446;53.850;10.662;2022-10-16T07:31:39;3.40;;;1.90;;
64932;SDS011;51446;53.850;10.662;2022-10-16T07:34:05;4.17;;;1.80;;
64932;SDS011;51446;53.850;10.662;2022-10-16T07:36:30;2.63;;;1.20;;
64932;SDS011;51446;53.850;10.662;2022-10-16T07:38:56;2.60;;;1.20;;
64932;SDS011;51446;53.850;10.662;2022-10-16T07:41:21;3.63;;;1.30;;
64932;SDS011;51446;53.850;10.662;2022-10-16T07:43:47;4.27;;;1.90;;
64932;SDS011;51446;53.850;10.662;2022-10-16T07:46:17;5.85;;;2.15;;
64932;SDS011;51446;53.850;10.662;2022-10-16T07:48:43;3.15;;;1.20;;
64932;SDS011;51446;53.850;10.662;2022-10-16T07:51:12;1.73;;;1.23;;
64932;SDS011;51446;53.850;10.662;2022-10-16T07:53:39;4.55;;;1.23;;
64932;SDS011;51446;53.850;10.662;2022-10-16T07:56:05;1.90;;;1.00;;
64932;SDS011;51446;53.850;10.662;2022-10-16T07:58:32;2.95;;;1.00;;
64932;SDS011;51446;53.850;10.662;2022-10-16T08:00:58;5.63;;;1.13;;
64932;SDS011;51446;53.850;10.662;2022-10-16T08:03:27;5.82;;;1.40;;
64932;SDS011;51446;53.850;10.662;2022-10-16T08:05:52;6.40;;;1.43;;
64932;SDS011;51446;53.850;10.662;2022-10-16T08:08:18;6.47;;;1.27;;
64932;SDS011;51446;53.850;10.662;2022-10-16T08:10:43;3.15;;;1.30;;
64932;SDS011;51446;53.850;10.662;2022-10-16T08:13:09;4.18;;;1.60;;
64932;SDS011;51446;53.850;10.662;2022-10-16T08:15:35;4.30;;;1.57;;
64932;SDS011;51446;53.850;10.662;2022-10-16T08:18:01;5.07;;;1.87;;
64932;SDS011;51446;53.850;10.662;2022-10-16T08:20:28;2.78;;;1.50;;
64932;SDS011;51446;53.850;10.662;2022-10-16T08:22:55;3.33;;;1.52;;
64932;SDS011;51446;53.850;10.662;2022-10-16T08:25:21;4.50;;;1.60;;
64932;SDS011;51446;53.850;10.662;2022-10-16T08:27:47;2.83;;;1.58;;
64932;SDS011;51446;53.850;10.662;2022-10-16T08:30:12;3.13;;;1.50;;
64932;SDS011;51446;53.850;10.662;2022-10-16T08:32:38;6.80;;;1.60;;
64932;SDS011;51446;53.850;10.662;2022-10-16T08:35:03;5.90;;;1.43;;
64932;SDS011;51446;53.850;10.662;2022-10-16T08:37:31;5.83;;;1.50;;
64932;SDS011;51446;53.850;10.662;2022-10-16T08:39:57;2.90;;;1.13;;
64932;SDS011;51446;53.850;10.662;2022-10-16T08:42:28;4.40;;;1.27;;
64932;SDS011;51446;53.850;10.662;2022-10-16T08:45:09;2.75;;;1.27;;
64932;SDS011;51446;53.850;10.662;2022-10-16T08:47:46;2.60;;;1.00;;
64932;SDS011;51446;53.850;10.662;2022-10-16T08:50:24;4.80;;;1.02;;
64932;SDS011;51446;53.850;10.662;2022-10-16T08:52:53;5.07;;;1.20;;
64932;SDS011;51446;53.850;10.662;2022-10-16T08:58:14;3.00;;;1.10;;
64932;SDS011;51446;53.850;10.662;2022-10-16T09:00:41;4.40;;;1.02;;
64932;SDS011;51446;53.850;10.662;2022-10-16T09:03:14;2.33;;;1.00;;
64932;SDS011;51446;53.850;10.662;2022-10-16T09:08:36;2.33;;;1.03;;
64932;SDS011;51446;53.850;10.662;2022-10-16T09:14:03;2.45;;;0.60;;
64932;SDS011;51446;53.850;10.662;2022-10-16T09:16:44;5.20;;;0.98;;
64932;SDS011;51446;53.850;10.662;2022-10-16T09:19:17;3.80;;;0.98;;
64932;SDS011;51446;53.850;10.662;2022-10-16T09:21:49;1.70;;;0.73;;
64932;SDS011;51446;53.850;10.662;2022-10-16T09:24:16;3.65;;;1.00;;
64932;SDS011;51446;53.850;10.662;2022-10-16T09:26:43;2.75;;;0.88;;
64932;SDS011;51446;53.850;10.662;2022-10-16T09:29:13;2.83;;;0.80;;
64932;SDS011;51446;53.850;10.662;2022-10-16T09:31:40;3.55;;;1.00;;
64932;SDS011;51446;53.850;10.662;2022-10-16T09:34:06;2.07;;;0.73;;
64932;SDS011;51446;53.850;10.662;2022-10-16T09:36:49;4.93;;;1.02;;
64932;SDS011;51446;53.850;10.662;2022-10-16T09:39:14;1.95;;;0.90;;
64932;SDS011;51446;53.850;10.662;2022-10-16T09:41:41;2.53;;;0.90;;
64932;SDS011;51446;53.850;10.662;2022-10-16T09:49:49;5.87;;;1.10;;
64932;SDS011;51446;53.850;10.662;2022-10-16T09:52:15;2.85;;;0.73;;
64932;SDS011;51446;53.850;10.662;2022-10-16T09:54:54;2.03;;;0.77;;
64932;SDS011;51446;53.850;10.662;2022-10-16T09:57:22;3.25;;;1.55;;
64932;SDS011;51446;53.850;10.662;2022-10-16T09:59:48;3.93;;;0.70;;
64932;SDS011;51446;53.850;10.662;2022-10-16T10:02:18;1.15;;;0.65;;
64932;SDS011;51446;53.850;10.662;2022-10-16T10:04:49;2.35;;;0.70;;
64932;SDS011;51446;53.850;10.662;2022-10-16T10:07:21;2.00;;;0.70;;
64932;SDS011;51446;53.850;10.662;2022-10-16T10:09:51;3.57;;;0.90;;
64932;SDS011;51446;53.850;10.662;2022-10-16T10:12:18;2.45;;;0.82;;
64932;SDS011;51446;53.850;10.662;2022-10-16T10:14:47;6.18;;;0.82;;
64932;SDS011;51446;53.850;10.662;2022-10-16T10:17:24;4.90;;;0.70;;
64932;SDS011;51446;53.850;10.662;2022-10-16T10:20:27;2.67;;;0.93;;
64932;SDS011;51446;53.850;10.662;2022-10-16T10:22:52;4.10;;;1.10;;
64932;SDS011;51446;53.850;10.662;2022-10-16T10:25:42;2.17;;;0.70;;
64932;SDS011;51446;53.850;10.662;2022-10-16T10:28:42;5.53;;;0.73;;
64932;SDS011;51446;53.850;10.662;2022-10-16T10:31:27;2.45;;;0.68;;
64932;SDS011;51446;53.850;10.662;2022-10-16T10:37:04;4.00;;;0.70;;
64932;SDS011;51446;53.850;10.662;2022-10-16T10:39:36;4.47;;;0.70;;
64932;SDS011;51446;53.850;10.662;2022-10-16T10:42:11;4.57;;;0.80;;
64932;SDS011;51446;53.850;10.662;2022-10-16T10:44:52;2.33;;;0.80;;
64932;SDS011;51446;53.850;10.662;2022-10-16T10:50:04;3.37;;;0.80;;
64932;SDS011;51446;53.850;10.662;2022-10-16T10:52:41;3.58;;;0.70;;
64932;SDS011;51446;53.850;10.662;2022-10-16T10:58:21;2.28;;;0.40;;
64932;SDS011;51446;53.850;10.662;2022-10-16T11:01:13;4.95;;;0.60;;
64932;SDS011;51446;53.850;10.662;2022-10-16T11:04:03;2.60;;;0.60;;
64932;SDS011;51446;53.850;10.662;2022-10-16T11:07:02;3.53;;;0.68;;
64932;SDS011;51446;53.850;10.662;2022-10-16T11:09:41;4.70;;;0.70;;
64932;SDS011;51446;53.850;10.662;2022-10-16T11:12:14;4.68;;;0.70;;
64932;SDS011;51446;53.850;10.662;2022-10-16T11:14:48;2.28;;;0.63;;
64932;SDS011;51446;53.850;10.662;2022-10-16T11:20:12;6.05;;;0.63;;
64932;SDS011;51446;53.850;10.662;2022-10-16T11:22:48;4.13;;;0.80;;
64932;SDS011;51446;53.850;10.662;2022-10-16T11:25:22;4.13;;;1.20;;
64932;SDS011;51446;53.850;10.662;2022-10-16T11:27:57;4.18;;;1.02;;
64932;SDS011;51446;53.850;10.662;2022-10-16T11:30:29;2.40;;;0.60;;
64932;SDS011;51446;53.850;10.662;2022-10-16T11:38:27;2.72;;;0.60;;
64932;SDS011;51446;53.850;10.662;2022-10-16T11:41:00;4.35;;;0.70;;
64932;SDS011;51446;53.850;10.662;2022-10-16T11:43:40;3.77;;;0.73;;
64932;SDS011;51446;53.850;10.662;2022-10-16T11:46:13;2.67;;;0.60;;
64932;SDS011;51446;53.850;10.662;2022-10-16T11:48:48;4.22;;;0.90;;
64932;SDS011;51446;53.850;10.662;2022-10-16T11:51:22;6.10;;;0.70;;
64932;SDS011;51446;53.850;10.662;2022-10-16T11:54:00;1.98;;;0.68;;
64932;SDS011;51446;53.850;10.662;2022-10-16T11:56:32;1.77;;;0.70;;
64932;SDS011;51446;53.850;10.662;2022-10-16T11:59:15;3.65;;;0.73;;
64932;SDS011;51446;53.850;10.662;2022-10-16T12:01:50;4.25;;;1.00;;
64932;SDS011;51446;53.850;10.662;2022-10-16T12:04:27;2.95;;;0.93;;
64932;SDS011;51446;53.850;10.662;2022-10-16T12:07:08;5.07;;;1.10;;
64932;SDS011;51446;53.850;10.662;2022-10-16T12:09:37;11.27;;;1.07;;
64932;SDS011;51446;53.850;10.662;2022-10-16T12:12:04;3.40;;;1.00;;
64932;SDS011;51446;53.850;10.662;2022-10-16T12:17:02;6.07;;;0.90;;
64932;SDS011;51446;53.850;10.662;2022-10-16T12:19:31;4.80;;;0.90;;
64932;SDS011;51446;53.850;10.662;2022-10-16T12:21:57;2.22;;;0.90;;
64932;SDS011;51446;53.850;10.662;2022-10-16T12:26:58;5.28;;;1.00;;
64932;SDS011;51446;53.850;10.662;2022-10-16T12:29:37;3.87;;;1.10;;
64932;SDS011;51446;53.850;10.662;2022-10-16T12:32:05;2.33;;;0.80;;
64932;SDS011;51446;53.850;10.662;2022-10-16T12:34:50;5.40;;;0.90;;
64932;SDS011;51446;53.850;10.662;2022-10-16T12:37:20;3.45;;;0.90;;
64932;SDS011;51446;53.850;10.662;2022-10-16T12:39:48;2.40;;;1.00;;
64932;SDS011;51446;53.850;10.662;2022-10-16T12:42:22;4.47;;;1.10;;
64932;SDS011;51446;53.850;10.662;2022-10-16T12:44:50;1.40;;;0.88;;
64932;SDS011;51446;53.850;10.662;2022-10-16T12:47:20;4.75;;;1.10;;
64932;SDS011;51446;53.850;10.662;2022-10-16T12:49:52;3.43;;;0.83;;
64932;SDS011;51446;53.850;10.662;2022-10-16T12:52:26;6.03;;;1.05;;
64932;SDS011;51446;53.850;10.662;2022-10-16T12:54:55;3.85;;;0.80;;
64932;SDS011;51446;53.850;10.662;2022-10-16T13:00:22;4.43;;;1.13;;
64932;SDS011;51446;53.850;10.662;2022-10-16T13:08:50;5.00;;;1.08;;
64932;SDS011;51446;53.850;10.662;2022-10-16T13:11:24;4.93;;;1.35;;
64932;SDS011;51446;53.850;10.662;2022-10-16T13:17:11;1.83;;;0.93;;
64932;SDS011;51446;53.850;10.662;2022-10-16T13:27:51;5.20;;;1.30;;
64932;SDS011;51446;53.850;10.662;2022-10-16T13:30:22;4.23;;;1.20;;
64932;SDS011;51446;53.850;10.662;2022-10-16T13:32:50;5.85;;;1.10;;
64932;SDS011;51446;53.850;10.662;2022-10-16T13:35:27;5.43;;;1.30;;
64932;SDS011;51446;53.850;10.662;2022-10-16T13:38:05;3.28;;;1.08;;
64932;SDS011;51446;53.850;10.662;2022-10-16T13:40:37;2.25;;;1.10;;
64932;SDS011;51446;53.850;10.662;2022-10-16T13:43:17;3.77;;;1.40;;
64932;SDS011;51446;53.850;10.662;2022-10-16T13:45:55;2.38;;;1.20;;
64932;SDS011;51446;53.850;10.662;2022-10-16T13:48:25;4.30;;;1.20;;
64932;SDS011;51446;53.850;10.662;2022-10-16T13:51:00;4.97;;;1.20;;
64932;SDS011;51446;53.850;10.662;2022-10-16T13:53:25;3.03;;;1.00;;
64932;SDS011;51446;53.850;10.662;2022-10-16T13:55:50;5.97;;;1.53;;
64932;SDS011;51446;53.850;10.662;2022-10-16T13:58:16;6.97;;;1.40;;
64932;SDS011;51446;53.850;10.662;2022-10-16T14:00:51;6.40;;;1.50;;
64932;SDS011;51446;53.850;10.662;2022-10-16T14:03:23;6.00;;;1.50;;
64932;SDS011;51446;53.850;10.662;2022-10-16T14:05:51;4.95;;;1.40;;
64932;SDS011;51446;53.850;10.662;2022-10-16T14:08:18;4.32;;;1.20;;
64932;SDS011;51446;53.850;10.662;2022-10-16T14:10:47;4.87;;;1.30;;
64932;SDS011;51446;53.850;10.662;2022-10-16T14:13:15;4.60;;;1.08;;
64932;SDS011;51446;53.850;10.662;2022-10-16T14:15:45;5.32;;;1.08;;
64932;SDS011;51446;53.850;10.662;2022-10-16T14:18:18;6.30;;;1.25;;
64932;SDS011;51446;53.850;10.662;2022-10-16T14:20:46;4.87;;;1.00;;
64932;SDS011;51446;53.850;10.662;2022-10-16T14:23:18;7.22;;;1.50;;
64932;SDS011;51446;53.850;10.662;2022-10-16T14:26:05;5.20;;;1.25;;
64932;SDS011;51446;53.850;10.662;2022-10-16T14:28:33;6.32;;;1.13;;
64932;SDS011;51446;53.850;10.662;2022-10-16T14:30:59;2.90;;;1.00;;
64932;SDS011;51446;53.850;10.662;2022-10-16T14:36:11;3.90;;;1.05;;
64932;SDS011;51446;53.850;10.662;2022-10-16T14:38:40;2.60;;;1.13;;
64932;SDS011;51446;53.850;10.662;2022-10-16T14:41:07;3.70;;;1.00;;
64932;SDS011;51446;53.850;10.662;2022-10-16T14:43:37;4.65;;;1.90;;
64932;SDS011;51446;53.850;10.662;2022-10-16T14:46:06;5.22;;;1.38;;
64932;SDS011;51446;53.850;10.662;2022-10-16T14:48:42;8.87;;;1.27;;
64932;SDS011;51446;53.850;10.662;2022-10-16T14:51:14;6.70;;;1.23;;
64932;SDS011;51446;53.850;10.662;2022-10-16T14:53:40;13.35;;;1.52;;
64932;SDS011;51446;53.850;10.662;2022-10-16T14:56:07;3.33;;;1.00;;
64932;SDS011;51446;53.850;10.662;2022-10-16T14:58:33;3.63;;;1.00;;
64932;SDS011;51446;53.850;10.662;2022-10-16T15:00:59;4.95;;;1.48;;
64932;SDS011;51446;53.850;10.662;2022-10-16T15:03:25;2.47;;;0.73;;
64932;SDS011;51446;53.850;10.662;2022-10-16T15:05:50;5.07;;;1.40;;
64932;SDS011;51446;53.850;10.662;2022-10-16T15:08:15;4.60;;;1.20;;
64932;SDS011;51446;53.850;10.662;2022-10-16T15:10:42;5.07;;;1.17;;
64932;SDS011;51446;53.850;10.662;2022-10-16T15:13:11;4.13;;;1.17;;
64932;SDS011;51446;53.850;10.662;2022-10-16T15:15:39;4.93;;;1.52;;
64932;SDS011;51446;53.850;10.662;2022-10-16T15:18:09;5.88;;;1.48;;
64932;SDS011;51446;53.850;10.662;2022-10-16T15:20:35;5.97;;;1.50;;
64932;SDS011;51446;53.850;10.662;2022-10-16T15:23:02;7.53;;;1.38;;
64932;SDS011;51446;53.850;10.662;2022-10-16T15:25:31;4.45;;;1.23;;
64932;SDS011;51446;53.850;10.662;2022-10-16T15:27:59;3.90;;;1.15;;
64932;SDS011;51446;53.850;10.662;2022-10-16T15:30:27;5.55;;;1.30;;
64932;SDS011;51446;53.850;10.662;2022-10-16T15:32:53;5.43;;;1.17;;
64932;SDS011;51446;53.850;10.662;2022-10-16T15:35:18;5.35;;;1.45;;
64932;SDS011;51446;53.850;10.662;2022-10-16T15:37:44;4.07;;;1.30;;
64932;SDS011;51446;53.850;10.662;2022-10-16T15:40:11;7.47;;;1.63;;
64932;SDS011;51446;53.850;10.662;2022-10-16T15:42:36;6.03;;;1.23;;
64932;SDS011;51446;53.850;10.662;2022-10-16T15:45:02;6.60;;;1.20;;
64932;SDS011;51446;53.850;10.662;2022-10-16T15:47:28;7.28;;;1.33;;
64932;SDS011;51446;53.850;10.662;2022-10-16T15:49:54;3.57;;;1.20;;
64932;SDS011;51446;53.850;10.662;2022-10-16T15:52:19;3.77;;;1.50;;
64932;SDS011;51446;53.850;10.662;2022-10-16T15:54:44;5.90;;;1.43;;
64932;SDS011;51446;53.850;10.662;2022-10-16T15:57:09;6.57;;;1.47;;
64932;SDS011;51446;53.850;10.662;2022-10-16T15:59:35;5.53;;;1.43;;
64932;SDS011;51446;53.850;10.662;2022-10-16T16:02:00;3.30;;;1.20;;
64932;SDS011;51446;53.850;10.662;2022-10-16T16:04:25;3.87;;;1.37;;
64932;SDS011;51446;53.850;10.662;2022-10-16T16:06:50;5.13;;;1.40;;